Time;durP1;ratioP1;P1;durP2;ratioP2;P2;SDS_P1;SDS_P2;PMS_P1;PMS_P2;Temp;Humidity;BMP_temperature;BMP_pressure;BME280_temperature;BME280_humidity;BME280_pressure;Samples;Min_cycle;Max_cycle;Signal;HPM_P1;HPM_P2
2021/01/28 00:02:21;;;;;;;64.97;31.00;;;;;;;-1.56;84.84;100288.37;1610596;87;21703;-75
2021/01/28 00:04:47;;;;;;;60.85;31.42;;;;;;;-1.59;84.81;100288.28;1585018;89;21510;-75
2021/01/28 00:07:13;;;;;;;62.53;31.10;;;;;;;-1.62;84.80;100282.72;1574440;87;21641;-75
2021/01/28 00:09:40;;;;;;;74.10;33.55;;;;;;;-1.65;84.84;100276.71;1609391;86;21659;-75
2021/01/28 00:12:06;;;;;;;71.30;31.70;;;;;;;-1.66;84.86;100278.39;1597747;86;21239;-75
2021/01/28 00:14:32;;;;;;;;;;;;;;;-1.67;84.87;100272.46;1613596;86;21184;-75
2021/01/28 00:16:59;;;;;;;;;;;;;;;-1.69;84.90;100265.62;1617774;86;21273;-75
2021/01/28 00:19:25;;;;;;;71.22;30.37;;;;;;;-1.71;84.89;100268.13;1616355;86;20286;-75
2021/01/28 00:21:51;;;;;;;78.60;34.63;;;;;;;-1.72;84.89;100263.01;1473354;88;10000472;-75
2021/01/28 00:24:17;;;;;;;74.40;34.83;;;;;;;-1.73;84.94;100257.48;1635197;85;21264;-75
2021/01/28 00:26:44;;;;;;;77.95;33.53;;;;;;;-1.73;84.98;100260.88;1637710;85;21257;-75
2021/01/28 00:29:10;;;;;;;74.75;32.70;;;;;;;-1.71;85.01;100267.27;1649071;85;21308;-75
2021/01/28 00:31:36;;;;;;;73.40;33.35;;;;;;;-1.70;85.03;100266.03;1647144;85;21240;-75
2021/01/28 00:34:02;;;;;;;70.70;32.85;;;;;;;-1.71;85.00;100263.05;1641345;85;21237;-75
2021/01/28 00:36:29;;;;;;;75.72;34.25;;;;;;;-1.70;85.02;100257.58;1627576;85;21253;-75
2021/01/28 00:38:55;;;;;;;76.28;32.55;;;;;;;-1.69;85.04;100263.95;1630579;85;24984;-75
2021/01/28 00:41:21;;;;;;;68.40;30.70;;;;;;;-1.67;85.08;100244.98;1635014;87;21215;-75
2021/01/28 00:43:48;;;;;;;70.57;31.10;;;;;;;-1.65;85.04;100243.76;1621883;86;21237;-75
2021/01/28 00:46:14;;;;;;;67.25;30.62;;;;;;;-1.65;85.05;100243.76;1627463;87;21520;-75
2021/01/28 00:48:41;;;;;;;56.02;27.82;;;;;;;-1.62;85.15;100240.05;1590656;87;22261;-75
2021/01/28 00:51:08;;;;;;;67.58;31.12;;;;;;;-1.58;85.16;100236.77;1662479;85;21221;-75
2021/01/28 00:53:34;;;;;;;59.50;28.52;;;;;;;-1.55;85.20;100236.82;1664997;85;22441;-75
2021/01/28 00:56:01;;;;;;;56.58;26.87;;;;;;;-1.51;85.18;100224.27;1654997;84;21179;-75
2021/01/28 00:58:27;;;;;;;54.58;26.62;;;;;;;-1.65;85.16;100186.73;1665245;85;21700;-75
2021/01/28 01:00:54;;;;;;;66.02;28.42;;;;;;;-1.45;85.20;100210.89;1664681;84;21698;-75
2021/01/28 01:03:23;;;;;;;59.03;28.12;;;;;;;-1.42;85.21;100204.62;1655063;85;21682;-75
2021/01/28 01:05:51;;;;;;;56.00;27.07;;;;;;;-1.39;85.20;100203.03;1664809;85;21528;-75
2021/01/28 01:08:25;;;;;;;51.48;26.93;;;;;;;-1.34;85.21;100204.41;1660237;84;21210;-75
2021/01/28 01:11:00;;;;;;;58.55;27.35;;;;;;;-1.30;85.20;100199.01;1662326;84;21198;-75
2021/01/28 01:13:30;;;;;;;60.67;29.40;;;;;;;-1.28;85.21;100196.10;1664888;85;22656;-75
2021/01/28 01:15:56;;;;;;;61.40;27.17;;;;;;;-1.24;85.22;100191.14;1658059;84;21218;-75
2021/01/28 01:18:27;;;;;;;65.25;28.67;;;;;;;-1.22;85.16;100192.45;1645909;84;21186;-75
2021/01/28 01:20:54;;;;;;;58.85;27.80;;;;;;;-1.21;85.18;100184.02;1669886;84;21194;-75
2021/01/28 01:23:21;;;;;;;63.73;29.15;;;;;;;-1.18;85.18;100185.36;1663985;84;21174;-75
2021/01/28 01:25:48;;;;;;;58.17;27.50;;;;;;;-1.17;85.15;100174.39;1661751;86;21895;-75
2021/01/28 01:28:14;;;;;;;55.52;27.55;;;;;;;-1.15;85.19;100162.61;1664134;84;21710;-75
2021/01/28 01:30:40;;;;;;;;;;;;;;;-1.14;85.16;100163.91;1661105;85;21205;-75
2021/01/28 01:33:07;;;;;;;57.08;26.23;;;;;;;-1.14;85.10;100155.03;1664903;84;20294;-75
2021/01/28 01:35:34;;;;;;;55.75;26.52;;;;;;;-1.15;85.13;100148.24;1664966;86;21217;-75
2021/01/28 01:38:02;;;;;;;55.38;27.07;;;;;;;-1.15;85.13;100145.70;1661698;84;21210;-75
2021/01/28 01:40:33;;;;;;;50.20;25.17;;;;;;;-1.13;85.15;100147.02;1649065;85;21140;-75
2021/01/28 01:43:02;;;;;;;50.55;26.42;;;;;;;-1.14;85.11;100146.56;1645378;85;21124;-75
2021/01/28 01:45:47;;;;;;;55.35;26.68;;;;;;;-1.14;85.10;100141.49;1654140;86;21484;-76
2021/01/28 01:48:31;;;;;;;53.42;26.12;;;;;;;-1.17;85.09;100138.47;1646480;85;21096;-76
2021/01/28 01:51:40;;;;;;;55.75;26.80;;;;;;;-1.17;85.11;100135.08;1641457;86;21116;-76
2021/01/28 01:54:21;;;;;;;53.58;26.97;;;;;;;-1.19;85.06;100141.38;1639263;86;21536;-76
2021/01/28 01:57:02;;;;;;;51.20;24.52;;;;;;;-1.21;85.07;100137.09;1647994;85;21509;-76
2021/01/28 01:59:39;;;;;;;46.00;24.57;;;;;;;-1.24;85.06;100139.15;1641100;86;21139;-76
2021/01/28 02:02:13;;;;;;;49.15;24.52;;;;;;;-1.25;85.10;100135.30;1657581;84;21134;-76
2021/01/28 02:04:41;;;;;;;46.85;22.87;;;;;;;-1.25;85.11;100129.83;1652904;85;21788;-76
2021/01/28 02:07:21;;;;;;;47.33;24.87;;;;;;;-1.25;85.13;100128.97;1646031;86;21220;-76
2021/01/28 02:09:48;;;;;;;49.13;24.18;;;;;;;-1.25;85.16;100120.09;1640989;85;21190;-76
2021/01/28 02:12:15;;;;;;;45.48;23.10;;;;;;;-1.27;84.99;100115.39;1652107;86;21658;-76
2021/01/28 02:14:42;;;;;;;44.75;23.70;;;;;;;-1.28;85.26;100113.67;1657183;85;21220;-76
2021/01/28 02:17:17;;;;;;;49.88;24.63;;;;;;;-1.28;85.15;100102.27;1652302;85;22416;-76
2021/01/28 02:20:17;;;;;;;43.20;23.55;;;;;;;-1.29;85.15;100092.53;1652109;85;21225;-76
2021/01/28 02:22:55;;;;;;;52.30;24.77;;;;;;;-1.31;85.08;100085.70;1652846;86;21119;-76
2021/01/28 02:25:28;;;;;;;44.88;23.22;;;;;;;-1.33;85.11;100071.72;1650490;85;21166;-76
2021/01/28 02:27:59;;;;;;;46.10;23.47;;;;;;;-1.33;85.17;100064.12;1646024;86;21446;-76
2021/01/28 02:30:29;;;;;;;46.88;24.27;;;;;;;-1.32;85.17;100060.76;1631891;86;21653;-76
2021/01/28 02:32:56;;;;;;;50.15;23.02;;;;;;;-1.31;85.18;100052.73;1570878;89;21192;-76
2021/01/28 02:35:27;;;;;;;47.08;23.55;;;;;;;-1.39;85.02;100026.80;1572208;89;21253;-75
2021/01/28 02:37:55;;;;;;;50.33;25.05;;;;;;;-1.39;85.02;100026.80;1565345;89;21540;-75
2021/01/28 02:40:26;;;;;;;41.58;22.48;;;;;;;-1.28;85.25;100029.57;1574093;88;22342;-75
2021/01/28 02:42:53;;;;;;;53.05;25.02;;;;;;;-1.26;85.24;100030.87;1605002;87;21243;-75
2021/01/28 02:45:30;;;;;;;41.37;22.75;;;;;;;-1.24;85.23;100019.09;1606619;87;21223;-75
2021/01/28 02:48:01;;;;;;;43.00;23.57;;;;;;;-1.24;85.26;100017.41;1610726;88;21247;-76
2021/01/28 02:50:28;;;;;;;45.23;23.62;;;;;;;-1.21;85.29;100016.61;1601790;87;21263;-76
2021/01/28 02:52:59;;;;;;;47.43;21.87;;;;;;;-1.18;85.25;100012.88;1602145;88;21220;-76
2021/01/28 02:55:28;;;;;;;45.50;23.22;;;;;;;-1.17;85.25;100011.64;1598077;87;21260;-76
2021/01/28 02:57:56;;;;;;;42.55;21.68;;;;;;;-1.15;85.27;100012.53;1606467;87;21231;-76
2021/01/28 03:00:30;;;;;;;46.35;22.58;;;;;;;-1.11;85.26;100008.38;1598553;87;21285;-76
2021/01/28 03:02:56;;;;;;;40.17;20.92;;;;;;;-1.09;85.36;100003.78;1609524;87;21231;-76
2021/01/28 03:05:22;;;;;;;45.33;22.27;;;;;;;-1.03;85.37;100000.07;1611270;87;21211;-76
2021/01/28 03:07:50;;;;;;;43.33;21.42;;;;;;;-1.00;85.30;99997.59;1599946;87;21239;-76
2021/01/28 03:10:22;;;;;;;36.80;20.27;;;;;;;-0.98;85.33;99990.02;1610415;87;21230;-76
2021/01/28 03:12:49;;;;;;;35.38;19.80;;;;;;;-0.94;85.32;99988.39;1598775;88;21571;-76
2021/01/28 03:15:22;;;;;;;41.70;19.87;;;;;;;-0.91;85.31;99982.11;1602328;87;21503;-76
2021/01/28 03:17:51;;;;;;;44.95;20.45;;;;;;;-0.87;85.33;99980.08;1604987;87;21244;-76
2021/01/28 03:20:20;;;;;;;35.08;18.80;;;;;;;-0.84;85.33;99971.27;1607701;87;22259;-76
2021/01/28 03:22:46;;;;;;;44.42;20.27;;;;;;;-0.80;85.31;99974.30;1610928;87;21259;-76
2021/01/28 03:25:14;;;;;;;41.50;20.37;;;;;;;-0.78;85.30;99977.31;1597076;87;21232;-76
2021/01/28 03:27:40;;;;;;;35.40;18.92;;;;;;;-0.74;85.30;99974.01;1607110;87;21856;-76
2021/01/28 03:30:11;;;;;;;35.83;19.62;;;;;;;-0.70;85.32;99968.58;1606824;87;21224;-76
2021/01/28 03:32:38;;;;;;;37.60;20.32;;;;;;;-0.68;85.30;99964.38;1599209;87;21231;-76
2021/01/28 03:35:07;;;;;;;35.10;19.27;;;;;;;-0.65;85.31;99958.09;1608489;87;21256;-76
2021/01/28 03:37:33;;;;;;;30.95;18.90;;;;;;;-0.63;85.28;99956.85;1612325;87;21151;-76
2021/01/28 03:39:59;;;;;;;37.33;18.90;;;;;;;-0.60;85.32;99956.50;1611653;87;21166;-76
2021/01/28 03:42:26;;;;;;;33.05;18.55;;;;;;;-0.58;85.31;99945.95;1612512;87;21138;-76
2021/01/28 03:44:53;;;;;;;40.45;20.20;;;;;;;-0.56;85.27;99946.84;1612460;87;22359;-76
2021/01/28 03:47:20;;;;;;;33.83;18.50;;;;;;;-0.55;85.26;99937.12;1607225;87;21168;-76
2021/01/28 03:49:46;;;;;;;;;;;;;;;-0.54;85.23;99938.83;1609370;88;21237;-76
2021/01/28 03:52:11;;;;;;;;;;;;;;;-0.51;85.26;99922.77;1614880;87;20542;-76
2021/01/28 03:54:38;;;;;;;30.57;17.27;;;;;;;-0.51;85.27;99927.42;1608256;87;20778;-76
2021/01/28 03:57:05;;;;;;;32.45;16.30;;;;;;;-0.49;85.24;99918.56;1610068;87;21174;-76
2021/01/28 03:59:32;;;;;;;35.70;19.20;;;;;;;-0.49;85.26;99908.00;1607733;87;21563;-76
2021/01/28 04:01:58;;;;;;;31.33;17.50;;;;;;;-0.46;85.29;99910.59;1614937;87;28799;-76
2021/01/28 04:04:24;;;;;;;36.68;19.05;;;;;;;-0.54;85.27;99886.78;1612587;87;21570;-76
2021/01/28 04:06:50;;;;;;;33.20;18.95;;;;;;;-0.41;85.31;99892.47;1607029;87;21208;-76
2021/01/28 04:09:18;;;;;;;33.98;18.95;;;;;;;-0.41;85.31;99892.47;1564992;90;21243;-76
2021/01/28 04:11:44;;;;;;;34.00;19.12;;;;;;;-0.39;85.29;99892.09;1582755;89;21203;-76
2021/01/28 04:14:10;;;;;;;33.92;18.73;;;;;;;-0.38;85.32;99882.78;1576969;90;21248;-76
2021/01/28 04:16:36;;;;;;;36.80;20.23;;;;;;;-0.36;85.34;99875.62;1563638;90;21254;-76
2021/01/28 04:19:02;;;;;;;33.40;18.00;;;;;;;-0.35;85.31;99873.94;1575268;90;21606;-76
2021/01/28 04:21:29;;;;;;;26.23;14.55;;;;;;;-0.34;85.34;99867.61;1565185;89;21244;-76
2021/01/28 04:23:56;;;;;;;30.72;17.70;;;;;;;-0.31;85.35;99865.95;1574875;90;21238;-76
2021/01/28 04:26:23;;;;;;;31.80;18.62;;;;;;;-0.31;85.35;99855.38;1569218;89;21627;-76
2021/01/28 04:28:49;;;;;;;33.75;18.52;;;;;;;-0.29;85.37;99863.02;1575977;89;21224;-76
2021/01/28 04:31:16;;;;;;;33.90;17.50;;;;;;;-0.27;85.37;99855.87;1574692;89;21263;-76
2021/01/28 04:33:42;;;;;;;37.25;19.02;;;;;;;-0.26;85.37;99859.27;1569589;89;21659;-75
2021/01/28 04:36:09;;;;;;;31.87;18.02;;;;;;;-0.24;85.36;99849.56;1575997;89;21254;-75
2021/01/28 04:38:35;;;;;;;37.88;19.80;;;;;;;-0.23;85.36;99841.53;1563927;90;21255;-75
2021/01/28 04:41:18;;;;;;;36.75;18.20;;;;;;;-0.23;85.37;99833.48;1555789;90;21529;-75
2021/01/28 04:43:51;;;;;;;38.08;19.50;;;;;;;-0.21;85.38;99825.48;1530319;91;21632;-75
2021/01/28 04:46:34;;;;;;;37.30;19.02;;;;;;;-0.19;85.38;99815.34;1538989;92;22334;-75
2021/01/28 04:49:04;;;;;;;35.70;18.65;;;;;;;-0.18;85.37;99817.05;1531301;92;21229;-75
2021/01/28 04:51:31;;;;;;;30.70;19.27;;;;;;;-0.17;85.39;99806.91;1538676;91;21246;-76
2021/01/28 04:54:26;;;;;;;33.40;17.85;;;;;;;-0.15;85.41;99810.73;1538869;93;21659;-76
2021/01/28 04:56:55;;;;;;;37.33;20.45;;;;;;;-0.15;85.38;99800.58;1526537;91;21245;-76
2021/01/28 04:59:31;;;;;;;35.98;19.40;;;;;;;-0.14;85.43;99801.87;1522532;93;21450;-76
2021/01/28 05:02:00;;;;;;;36.70;19.42;;;;;;;-0.14;85.43;99796.78;1535585;91;21247;-76
2021/01/28 05:04:35;;;;;;;30.77;19.07;;;;;;;-0.13;85.46;99790.88;1535231;93;21266;-76
2021/01/28 05:07:01;;;;;;;36.77;19.77;;;;;;;-0.12;85.52;99790.45;1531200;92;21226;-76
2021/01/28 05:09:27;;;;;;;36.00;18.57;;;;;;;-0.12;85.53;99786.23;1534806;91;26741;-76
2021/01/28 05:11:58;;;;;;;33.98;19.52;;;;;;;-0.13;85.59;99781.98;1538896;93;21268;-76
2021/01/28 05:14:31;;;;;;;27.98;16.85;;;;;;;-0.13;85.61;99781.13;1534090;91;21667;-76
2021/01/28 05:17:03;;;;;;;36.05;20.00;;;;;;;-0.12;85.63;99776.06;1535047;93;21230;-76
2021/01/28 05:19:47;;;;;;;34.10;19.50;;;;;;;-0.12;85.63;99778.61;1537193;91;21253;-76
2021/01/28 05:22:39;;;;;;;29.92;17.40;;;;;;;-0.14;85.67;99768.84;1525930;91;21702;-76
2021/01/28 05:25:32;;;;;;;33.55;19.77;;;;;;;-0.12;85.70;99763.78;1532828;91;21211;-76
2021/01/28 05:27:58;;;;;;;34.50;19.05;;;;;;;-0.11;85.77;99762.95;1532958;91;21540;-76
2021/01/28 05:30:45;;;;;;;34.65;18.90;;;;;;;-0.11;85.78;99759.13;1538779;91;21202;-76
2021/01/28 05:33:39;;;;;;;29.70;18.42;;;;;;;-0.10;85.77;99758.30;1536217;91;21558;-77
2021/01/28 05:36:21;;;;;;;30.10;18.62;;;;;;;-0.11;85.81;99742.62;1540165;91;21143;-78
2021/01/28 05:38:54;;;;;;;34.80;18.42;;;;;;;-0.10;85.87;99745.59;1538280;91;21939;-78
2021/01/28 05:41:43;;;;;;;33.18;20.77;;;;;;;-0.10;85.91;99734.16;1544179;91;21672;-78
2021/01/28 05:44:28;;;;;;;28.42;17.92;;;;;;;-0.09;85.94;99740.53;1554529;91;22345;-78
2021/01/28 05:47:06;;;;;;;30.02;19.37;;;;;;;-0.08;85.92;99736.30;1552355;90;21179;-77
2021/01/28 05:49:34;;;;;;;32.38;18.98;;;;;;;-0.08;85.95;99732.08;1548005;90;21160;-78
2021/01/28 05:52:19;;;;;;;33.75;21.27;;;;;;;-0.08;85.98;99727.00;1555394;91;21270;-78
2021/01/28 05:55:07;;;;;;;34.73;21.82;;;;;;;-0.07;85.96;99724.89;1553049;91;21275;-78
2021/01/28 05:58:06;;;;;;;33.60;21.02;;;;;;;-0.05;85.98;99716.02;1546326;90;21223;-78
2021/01/28 06:00:57;;;;;;;31.55;19.48;;;;;;;-0.06;86.02;99708.81;1542100;90;22148;-76
2021/01/28 06:03:54;;;;;;;29.07;19.77;;;;;;;-0.04;86.05;99702.47;1538405;90;21209;-75
2021/01/28 06:06:23;;;;;;;32.63;19.70;;;;;;;-0.03;86.07;99708.84;1545222;91;21261;-77
2021/01/28 06:09:28;;;;;;;30.95;19.57;;;;;;;-0.03;86.08;99706.30;1542688;92;21251;-77
2021/01/28 06:12:27;;;;;;;32.13;18.90;;;;;;;-0.02;86.12;99701.66;1536005;90;21253;-78
2021/01/28 06:15:26;;;;;;;32.93;19.98;;;;;;;0.00;86.13;99702.95;1546516;90;21269;-78
2021/01/28 06:18:31;;;;;;;34.43;20.97;;;;;;;0.01;86.15;99689.37;1546119;90;21225;-78
2021/01/28 06:21:39;;;;;;;30.08;18.82;;;;;;;0.03;86.19;99686.44;1547248;90;22376;-77
2021/01/28 06:24:33;;;;;;;27.05;17.62;;;;;;;0.06;86.20;99689.43;1550025;90;21279;-77
2021/01/28 06:27:38;;;;;;;34.27;20.68;;;;;;;0.07;86.20;99686.05;1546017;90;21239;-76
2021/01/28 06:30:42;;;;;;;30.30;19.95;;;;;;;0.07;86.22;99683.09;1549657;90;21787;-76
2021/01/28 06:33:44;;;;;;;31.33;21.02;;;;;;;0.09;86.23;99683.11;1542842;90;21243;-75
2021/01/28 06:36:48;;;;;;;33.33;21.12;;;;;;;0.11;86.27;99688.64;1550689;90;21244;-76
2021/01/28 06:39:35;;;;;;;35.80;22.27;;;;;;;0.11;86.25;99678.48;1539537;90;21260;-76
2021/01/28 06:42:09;;;;;;;32.25;21.33;;;;;;;0.14;86.29;99674.70;1541384;91;21218;-76
2021/01/28 06:45:10;;;;;;;33.00;20.95;;;;;;;0.14;86.27;99667.49;1524442;92;21276;-77
2021/01/28 06:47:50;;;;;;;33.65;21.37;;;;;;;0.15;86.29;99664.11;1552948;91;21267;-75
2021/01/28 06:50:31;;;;;;;33.78;22.15;;;;;;;0.14;86.27;99657.33;1559865;91;22035;-77
2021/01/28 06:53:11;;;;;;;30.12;20.75;;;;;;;0.15;86.32;99661.58;1549639;91;21829;-76
2021/01/28 06:56:04;;;;;;;27.10;19.32;;;;;;;0.17;86.33;99656.94;1545819;91;21238;-76
2021/01/28 06:59:03;;;;;;;38.17;22.95;;;;;;;0.19;86.31;99661.62;1547940;91;21240;-75
2021/01/28 07:01:58;;;;;;;36.88;23.87;;;;;;;0.20;86.36;99657.39;1544689;91;21779;-76
2021/01/28 07:04:54;;;;;;;38.35;23.45;;;;;;;0.20;86.36;99650.62;1543422;91;21663;-76
2021/01/28 07:07:25;;;;;;;;;;;;;;;0.21;86.38;99651.05;1536190;91;21520;-76
2021/01/28 07:10:05;;;;;;;35.40;20.35;;;;;;;0.23;86.41;99651.06;1521873;91;21178;-76
2021/01/28 07:12:49;;;;;;;39.05;22.20;;;;;;;0.23;86.41;99648.52;1535015;91;21243;-76
2021/01/28 07:15:16;;;;;;;39.53;21.05;;;;;;;0.25;86.42;99641.77;1535635;91;21637;-76
2021/01/28 07:17:51;;;;;;;39.10;22.00;;;;;;;0.27;86.44;99638.82;1519569;91;21567;-77
2021/01/28 07:21:02;;;;;;;29.95;19.77;;;;;;;0.29;86.46;99630.38;1536292;91;21740;-76
2021/01/28 07:23:36;;;;;;;25.90;18.82;;;;;;;0.32;86.46;99630.81;1523137;90;21269;-75
2021/01/28 07:26:14;;;;;;;32.35;19.42;;;;;;;0.33;86.44;99618.54;1555091;90;21582;-77
2021/01/28 07:28:42;;;;;;;33.65;21.37;;;;;;;0.33;86.45;99619.39;1582184;89;21654;-76
2021/01/28 07:31:22;;;;;;;33.25;20.68;;;;;;;0.37;86.48;99627.05;1581467;89;21955;-77
2021/01/28 07:34:04;;;;;;;32.42;20.05;;;;;;;0.38;86.48;99628.75;1545933;89;21180;-76
2021/01/28 07:36:44;;;;;;;31.90;20.95;;;;;;;0.40;86.50;99616.91;1589930;88;21189;-76
2021/01/28 07:39:32;;;;;;;30.82;20.80;;;;;;;0.43;86.52;99610.58;1598592;88;21144;-76
2021/01/28 07:42:03;;;;;;;32.20;21.17;;;;;;;0.44;86.50;99619.91;1594881;88;21153;-76
2021/01/28 07:44:41;;;;;;;32.08;20.65;;;;;;;0.45;86.51;99619.92;1598179;88;21228;-76
2021/01/28 07:47:15;;;;;;;27.82;18.62;;;;;;;0.47;86.46;99622.06;1590879;88;21486;-76
2021/01/28 07:50:04;;;;;;;26.93;21.35;;;;;;;0.46;86.48;99622.05;1577739;88;32901;-76
2021/01/28 07:52:38;;;;;;;28.00;18.55;;;;;;;0.50;86.41;99617.00;1585148;89;21727;-76
2021/01/28 07:55:05;;;;;;;28.52;19.50;;;;;;;0.55;86.45;99617.00;1594959;88;21720;-76
2021/01/28 07:57:45;;;;;;;25.65;20.02;;;;;;;0.57;86.50;99620.41;1590851;88;21290;-76
2021/01/28 08:00:18;;;;;;;23.95;17.25;;;;;;;0.59;86.54;99623.41;1593091;88;21244;-76
2021/01/28 08:02:48;;;;;;;23.42;17.62;;;;;;;0.61;86.51;99618.33;1603391;88;21728;-76
2021/01/28 08:05:22;;;;;;;25.45;18.02;;;;;;;0.63;86.56;99623.86;1574012;89;21544;-76
2021/01/28 08:08:05;;;;;;;26.97;18.87;;;;;;;0.65;86.62;99613.28;1575452;88;21264;-76
2021/01/28 08:10:35;;;;;;;24.47;16.40;;;;;;;0.62;86.60;99600.53;1592554;88;21376;-76
2021/01/28 08:13:30;;;;;;;26.48;19.15;;;;;;;0.69;86.61;99605.67;1595755;88;21259;-75
2021/01/28 08:16:02;;;;;;;25.35;17.15;;;;;;;0.69;86.58;99603.13;1587514;88;21296;-76
2021/01/28 08:18:36;;;;;;;26.27;17.85;;;;;;;0.69;86.61;99596.34;1595591;88;21669;-76
2021/01/28 08:21:22;;;;;;;22.77;16.87;;;;;;;0.70;86.63;99593.38;1596988;88;21517;-76
2021/01/28 08:23:50;;;;;;;25.80;17.20;;;;;;;0.73;86.71;99594.67;1600554;88;21788;-76
2021/01/28 08:26:50;;;;;;;29.37;18.67;;;;;;;0.75;86.71;99593.84;1597167;88;21242;-76
2021/01/28 08:29:20;;;;;;;23.87;17.23;;;;;;;0.78;86.71;99598.11;1542883;91;22349;-75
2021/01/28 08:31:53;;;;;;;23.18;17.62;;;;;;;0.80;86.71;99594.73;1542051;91;21606;-75
2021/01/28 08:34:25;;;;;;;21.05;16.00;;;;;;;0.83;86.73;99597.72;1552511;89;22099;-75
2021/01/28 08:37:02;;;;;;;21.20;15.90;;;;;;;0.83;86.71;99597.72;1540392;91;22471;-76
2021/01/28 08:39:35;;;;;;;22.25;17.05;;;;;;;0.84;86.71;99598.15;1530587;92;21222;-76
2021/01/28 08:42:16;;;;;;;22.07;16.42;;;;;;;0.86;86.75;99595.20;1554489;90;21272;-76
2021/01/28 08:44:45;;;;;;;22.60;15.90;;;;;;;0.87;86.75;99599.02;1547440;90;21302;-76
2021/01/28 08:47:22;;;;;;;21.50;15.38;;;;;;;0.89;86.74;99602.85;1547622;90;21230;-76
2021/01/28 08:50:16;;;;;;;18.25;15.05;;;;;;;0.90;86.74;99606.67;1528269;90;22065;-76
2021/01/28 08:52:44;;;;;;;20.57;15.50;;;;;;;0.92;86.77;99601.17;1549722;90;21193;-76
2021/01/28 08:55:21;;;;;;;20.40;15.58;;;;;;;0.95;86.78;99595.25;1552838;90;21202;-76
2021/01/28 08:57:47;;;;;;;;;;;;;;;0.96;86.79;99595.69;1551914;90;21618;-76
2021/01/28 09:00:20;;;;;;;22.73;14.85;;;;;;;0.98;86.82;99592.31;1546995;90;21211;-76
2021/01/28 09:02:51;;;;;;;20.15;14.65;;;;;;;0.99;86.79;99595.28;1550153;90;21199;-77
2021/01/28 09:05:28;;;;;;;20.55;14.55;;;;;;;1.01;86.83;99590.20;1549008;90;21178;-76
2021/01/28 09:08:02;;;;;;;21.00;15.88;;;;;;;1.03;86.83;99595.30;1548807;90;21162;-77
2021/01/28 09:10:38;;;;;;;22.48;15.98;;;;;;;1.03;86.82;99591.06;1548988;90;21170;-76
2021/01/28 09:13:21;;;;;;;19.23;14.77;;;;;;;1.05;86.83;99589.77;1541776;91;21178;-77
2021/01/28 09:16:07;;;;;;;20.27;16.12;;;;;;;1.05;86.81;99593.17;1552998;90;21934;-77
2021/01/28 09:18:43;;;;;;;25.68;16.80;;;;;;;1.08;86.88;99597.42;1553182;90;21289;-77
2021/01/28 09:21:17;;;;;;;20.82;15.23;;;;;;;1.10;86.87;99595.31;1549027;90;21240;-77
2021/01/28 09:24:04;;;;;;;17.70;13.28;;;;;;;1.10;86.87;99595.31;1531522;90;21237;-76
2021/01/28 09:26:36;;;;;;;19.27;13.98;;;;;;;1.11;86.85;99598.30;1550438;90;21271;-77
2021/01/28 09:29:22;;;;;;;19.92;14.10;;;;;;;1.07;86.88;99586.39;1531927;90;22093;-77
2021/01/28 09:31:50;;;;;;;18.73;14.35;;;;;;;1.13;86.93;99586.84;1550697;90;27311;-77
2021/01/28 09:34:31;;;;;;;21.12;14.95;;;;;;;1.17;86.96;99588.14;1551055;90;21241;-77
2021/01/28 09:37:05;;;;;;;18.92;13.35;;;;;;;1.20;86.96;99589.44;1549617;90;21244;-77
2021/01/28 09:39:48;;;;;;;19.67;14.60;;;;;;;1.22;86.96;99587.75;1549372;90;21881;-76
2021/01/28 09:42:32;;;;;;;15.38;12.33;;;;;;;1.26;86.97;99584.80;1547905;90;21985;-76
2021/01/28 09:45:24;;;;;;;22.67;13.65;;;;;;;1.32;87.04;99578.03;1550519;90;21233;-77
2021/01/28 09:47:58;;;;;;;17.42;12.65;;;;;;;1.37;87.06;99572.97;1551649;90;21634;-77
2021/01/28 09:50:25;;;;;;;18.45;12.73;;;;;;;1.43;87.00;99570.45;1548048;90;21245;-77
2021/01/28 09:52:52;;;;;;;18.05;12.18;;;;;;;1.48;87.03;99569.19;1551677;90;21281;-77
2021/01/28 09:55:25;;;;;;;17.05;12.05;;;;;;;1.54;87.07;99567.52;1549916;90;21383;-77
2021/01/28 09:57:52;;;;;;;17.92;12.07;;;;;;;1.60;87.04;99568.78;1549260;90;21039;-77
2021/01/28 10:00:20;;;;;;;;;;;;;;;1.66;87.07;99570.08;1550806;90;21245;-77
2021/01/28 10:03:05;;;;;;;16.60;11.38;;;;;;;1.73;87.08;99570.09;1550352;90;20688;-77
2021/01/28 10:05:33;;;;;;;15.10;11.30;;;;;;;1.78;87.06;99564.16;1551821;90;21233;-77
2021/01/28 10:08:03;;;;;;;18.12;12.30;;;;;;;1.85;87.05;99564.61;1553937;90;21780;-77
2021/01/28 10:10:32;;;;;;;14.73;10.95;;;;;;;1.91;87.04;99565.05;1552191;90;21202;-77
2021/01/28 10:13:03;;;;;;;15.53;10.60;;;;;;;1.97;87.07;99561.23;1549600;90;21233;-78
2021/01/28 10:15:29;;;;;;;14.68;11.48;;;;;;;2.02;87.03;99571.02;1553446;90;21250;-78
2021/01/28 10:17:57;;;;;;;15.58;11.00;;;;;;;2.06;87.01;99556.57;1556675;90;21253;-78
2021/01/28 10:20:23;;;;;;;14.30;11.50;;;;;;;2.10;87.02;99551.45;1560442;90;21424;-77
2021/01/28 10:22:51;;;;;;;16.67;12.20;;;;;;;2.13;86.97;99554.00;1553983;90;21202;-78
2021/01/28 10:25:23;;;;;;;13.15;11.35;;;;;;;2.18;87.01;99556.13;1550396;90;21646;-78
2021/01/28 10:27:50;;;;;;;14.85;11.93;;;;;;;2.25;87.02;99553.16;1555252;90;21268;-77
2021/01/28 10:30:19;;;;;;;12.90;9.90;;;;;;;2.30;87.02;99554.02;1554220;90;21255;-78
2021/01/28 10:32:47;;;;;;;17.35;11.60;;;;;;;2.37;86.98;99551.04;1553548;90;21670;-78
2021/01/28 10:35:24;;;;;;;11.75;9.68;;;;;;;2.37;86.95;99553.59;1546106;90;21245;-78
2021/01/28 10:37:51;;;;;;;11.57;10.05;;;;;;;2.40;86.93;99551.89;1552529;90;21265;-79
2021/01/28 10:40:19;;;;;;;11.03;9.25;;;;;;;2.41;86.91;99547.64;1562650;90;21213;-78
2021/01/28 10:42:47;;;;;;;12.58;9.90;;;;;;;2.40;86.84;99543.39;1566997;90;21631;-78
2021/01/28 10:45:18;;;;;;;11.18;9.55;;;;;;;2.39;86.90;99548.91;1549535;90;22412;-78
2021/01/28 10:47:46;;;;;;;10.60;9.13;;;;;;;2.39;86.90;99547.64;1550757;90;21220;-78
2021/01/28 10:50:13;;;;;;;10.63;8.95;;;;;;;2.40;86.89;99543.39;1562605;90;21183;-78
2021/01/28 10:52:39;;;;;;;10.23;8.98;;;;;;;2.40;86.91;99541.69;1554804;90;21144;-78
2021/01/28 10:55:08;;;;;;;12.03;8.73;;;;;;;2.42;86.92;99533.61;1556521;90;21170;-78
2021/01/28 10:57:35;;;;;;;9.40;8.13;;;;;;;2.46;86.93;99525.53;1553779;90;21273;-78
2021/01/28 11:00:03;;;;;;;8.53;7.67;;;;;;;2.49;87.00;99531.48;1558609;90;21613;-78
2021/01/28 11:02:29;;;;;;;8.28;7.47;;;;;;;2.52;86.95;99529.35;1558169;89;21162;-78
2021/01/28 11:04:59;;;;;;;8.65;7.58;;;;;;;2.53;86.92;99516.59;1555757;90;21153;-78
2021/01/28 11:07:27;;;;;;;8.75;7.85;;;;;;;2.58;86.99;99517.86;1554712;90;21157;-77
2021/01/28 11:09:54;;;;;;;9.15;7.50;;;;;;;2.65;87.06;99506.77;1562885;90;21264;-77
2021/01/28 11:12:20;;;;;;;8.00;7.20;;;;;;;2.74;86.97;99508.45;1552285;90;21840;-77
2021/01/28 11:14:47;;;;;;;9.08;7.80;;;;;;;2.74;86.97;99508.45;1551849;90;21170;-77
2021/01/28 11:17:15;;;;;;;7.03;6.33;;;;;;;2.77;86.98;99498.23;1551409;90;21270;-77
2021/01/28 11:19:43;;;;;;;6.92;6.25;;;;;;;2.74;86.83;99500.80;1556377;90;21272;-78
2021/01/28 11:22:09;;;;;;;6.85;6.20;;;;;;;2.77;86.97;99495.25;1556099;90;22435;-78
2021/01/28 11:24:37;;;;;;;6.60;6.00;;;;;;;2.82;86.97;99492.27;1548846;90;21638;-78
2021/01/28 11:27:05;;;;;;;6.33;5.78;;;;;;;2.86;86.96;99488.00;1563509;90;21312;-78
2021/01/28 11:29:36;;;;;;;7.08;6.37;;;;;;;2.88;86.96;99490.97;1551489;90;21741;-77
2021/01/28 11:32:03;;;;;;;6.83;6.08;;;;;;;2.91;86.96;99489.69;1554488;89;21248;-77
2021/01/28 11:34:30;;;;;;;;;;;;;;;2.92;86.91;99482.45;1556301;90;21281;-77
2021/01/28 11:36:56;;;;;;;6.67;6.08;;;;;;;2.91;86.89;99483.73;1555480;90;20316;-78
2021/01/28 11:39:22;;;;;;;6.50;5.30;;;;;;;2.84;86.78;99479.06;1556418;90;21273;-77
2021/01/28 11:41:51;;;;;;;6.00;5.40;;;;;;;2.79;86.76;99482.06;1551339;90;21254;-77
2021/01/28 11:44:21;;;;;;;5.87;5.28;;;;;;;2.76;86.78;99474.84;1554619;90;21235;-77
2021/01/28 11:46:47;;;;;;;6.17;5.65;;;;;;;2.70;86.73;99478.25;1557018;90;21711;-78
2021/01/28 11:49:14;;;;;;;6.97;6.28;;;;;;;2.65;86.76;99473.16;1548310;90;21635;-78
2021/01/28 11:51:41;;;;;;;4.97;4.42;;;;;;;2.62;86.72;99468.48;1550638;90;21217;-78
2021/01/28 11:54:07;;;;;;;6.15;5.17;;;;;;;2.58;86.74;99465.55;1552512;90;21258;-78